Nicollet, Minnesota
Current Conditions -  °F | °C
As of 6:55 AM on Tuesday 21 Oct 2014 (Local Time) from KMKT Reporting Station
Clear Clear  
Wind Chill: 34°   Ceiling: Unl
Heat Index: 39°   Visibility: 10mi
Dew Point: 34°   Wind: 7mph
Humidity: 81%   Direction: 100°E
Pressure: 30.15"   Gusts: NA
Location:  44.28°N, 94.19°W
Report Text: KMKT 211155Z AUTO 10006KT 10SM CLR 04/01 A3015 RMK AO1 10080 20040 52010
Loading
Personal Weather Stations






























Interactive Weather Map
Tropical Storm Tracking
New forecast layout! Learn more

10-Day Weather Forecast

Advertisements
Track Severe Weather on mobile